sensor_id;sensor_type;location;lat;lon;timestamp;temperature;humidity
15879;DHT22;61999;51.514;14.614;2023-05-10T00:00:33;5.30;52.90
15879;DHT22;61999;51.514;14.614;2023-05-10T00:03:03;5.20;53.50
15879;DHT22;61999;51.514;14.614;2023-05-10T00:05:32;5.10;53.60
15879;DHT22;61999;51.514;14.614;2023-05-10T00:08:00;5.00;53.90
15879;DHT22;61999;51.514;14.614;2023-05-10T00:10:28;4.90;54.00
15879;DHT22;61999;51.514;14.614;2023-05-10T00:12:56;5.00;54.30
15879;DHT22;61999;51.514;14.614;2023-05-10T00:15:24;4.90;54.10
15879;DHT22;61999;51.514;14.614;2023-05-10T00:17:52;4.90;54.50
15879;DHT22;61999;51.514;14.614;2023-05-10T00:20:22;4.90;54.10
15879;DHT22;61999;51.514;14.614;2023-05-10T00:22:50;4.80;54.50
15879;DHT22;61999;51.514;14.614;2023-05-10T00:25:19;4.80;54.30
15879;DHT22;61999;51.514;14.614;2023-05-10T00:27:48;4.80;54.80
15879;DHT22;61999;51.514;14.614;2023-05-10T00:30:16;4.60;54.40
15879;DHT22;61999;51.514;14.614;2023-05-10T00:32:44;4.70;54.70
15879;DHT22;61999;51.514;14.614;2023-05-10T00:35:15;4.60;54.90
15879;DHT22;61999;51.514;14.614;2023-05-10T00:37:44;4.70;53.80
15879;DHT22;61999;51.514;14.614;2023-05-10T00:40:13;4.70;54.50
15879;DHT22;61999;51.514;14.614;2023-05-10T00:42:41;4.50;55.10
15879;DHT22;61999;51.514;14.614;2023-05-10T00:45:09;4.40;55.60
15879;DHT22;61999;51.514;14.614;2023-05-10T00:47:38;4.30;55.60
15879;DHT22;61999;51.514;14.614;2023-05-10T00:50:08;4.30;55.90
15879;DHT22;61999;51.514;14.614;2023-05-10T00:52:36;4.20;56.30
15879;DHT22;61999;51.514;14.614;2023-05-10T00:55:07;4.20;56.00
15879;DHT22;61999;51.514;14.614;2023-05-10T00:57:37;4.20;56.10
15879;DHT22;61999;51.514;14.614;2023-05-10T01:00:06;4.20;56.00
15879;DHT22;61999;51.514;14.614;2023-05-10T01:02:36;4.20;56.00
15879;DHT22;61999;51.514;14.614;2023-05-10T01:05:05;4.20;56.40
15879;DHT22;61999;51.514;14.614;2023-05-10T01:07:33;4.00;56.90
15879;DHT22;61999;51.514;14.614;2023-05-10T01:10:01;4.10;56.00
15879;DHT22;61999;51.514;14.614;2023-05-10T01:12:31;4.00;56.70
15879;DHT22;61999;51.514;14.614;2023-05-10T01:15:00;3.90;57.20
15879;DHT22;61999;51.514;14.614;2023-05-10T01:17:29;3.90;56.80
15879;DHT22;61999;51.514;14.614;2023-05-10T01:19:58;3.80;57.50
15879;DHT22;61999;51.514;14.614;2023-05-10T01:29:14;3.60;58.50
15879;DHT22;61999;51.514;14.614;2023-05-10T01:32:16;3.60;58.20
15879;DHT22;61999;51.514;14.614;2023-05-10T01:34:56;3.60;58.40
15879;DHT22;61999;51.514;14.614;2023-05-10T01:37:36;3.60;58.20
15879;DHT22;61999;51.514;14.614;2023-05-10T01:40:15;3.40;59.10
15879;DHT22;61999;51.514;14.614;2023-05-10T01:42:51;3.50;59.30
15879;DHT22;61999;51.514;14.614;2023-05-10T01:45:27;3.40;58.70
15879;DHT22;61999;51.514;14.614;2023-05-10T01:48:06;3.40;59.10
15879;DHT22;61999;51.514;14.614;2023-05-10T01:50:37;3.40;59.00
15879;DHT22;61999;51.514;14.614;2023-05-10T01:53:08;3.60;58.00
15879;DHT22;61999;51.514;14.614;2023-05-10T01:55:44;3.40;59.00
15879;DHT22;61999;51.514;14.614;2023-05-10T01:58:19;3.40;59.20
15879;DHT22;61999;51.514;14.614;2023-05-10T02:00:51;3.30;59.60
15879;DHT22;61999;51.514;14.614;2023-05-10T02:03:24;3.30;59.20
15879;DHT22;61999;51.514;14.614;2023-05-10T02:05:54;3.20;59.30
15879;DHT22;61999;51.514;14.614;2023-05-10T02:08:24;3.20;59.70
15879;DHT22;61999;51.514;14.614;2023-05-10T02:10:55;3.00;60.40
15879;DHT22;61999;51.514;14.614;2023-05-10T02:13:26;3.00;60.60
15879;DHT22;61999;51.514;14.614;2023-05-10T02:15:56;3.00;60.80
15879;DHT22;61999;51.514;14.614;2023-05-10T02:18:27;2.80;61.00
15879;DHT22;61999;51.514;14.614;2023-05-10T02:20:58;2.80;61.20
15879;DHT22;61999;51.514;14.614;2023-05-10T02:23:29;2.70;61.70
15879;DHT22;61999;51.514;14.614;2023-05-10T02:25:58;2.70;62.00
15879;DHT22;61999;51.514;14.614;2023-05-10T02:28:29;2.70;62.00
15879;DHT22;61999;51.514;14.614;2023-05-10T02:31:00;2.60;62.10
15879;DHT22;61999;51.514;14.614;2023-05-10T02:33:31;2.60;61.60
15879;DHT22;61999;51.514;14.614;2023-05-10T02:36:02;2.70;61.80
15879;DHT22;61999;51.514;14.614;2023-05-10T02:38:33;2.80;61.60
15879;DHT22;61999;51.514;14.614;2023-05-10T02:41:04;2.70;62.00
15879;DHT22;61999;51.514;14.614;2023-05-10T02:43:33;2.70;61.70
15879;DHT22;61999;51.514;14.614;2023-05-10T02:46:03;2.70;61.70
15879;DHT22;61999;51.514;14.614;2023-05-10T02:48:32;2.70;61.70
15879;DHT22;61999;51.514;14.614;2023-05-10T02:51:05;2.80;61.20
15879;DHT22;61999;51.514;14.614;2023-05-10T02:53:38;2.70;61.70
15879;DHT22;61999;51.514;14.614;2023-05-10T02:56:13;2.80;62.20
15879;DHT22;61999;51.514;14.614;2023-05-10T02:58:47;2.80;61.00
15879;DHT22;61999;51.514;14.614;2023-05-10T03:01:15;2.80;60.30
15879;DHT22;61999;51.514;14.614;2023-05-10T03:03:45;2.90;59.90
15879;DHT22;61999;51.514;14.614;2023-05-10T03:06:13;2.80;60.50
15879;DHT22;61999;51.514;14.614;2023-05-10T03:08:43;2.80;61.20
15879;DHT22;61999;51.514;14.614;2023-05-10T03:11:30;2.80;60.70
15879;DHT22;61999;51.514;14.614;2023-05-10T03:14:16;2.80;61.30
15879;DHT22;61999;51.514;14.614;2023-05-10T03:16:57;2.80;61.00
15879;DHT22;61999;51.514;14.614;2023-05-10T03:19:42;2.90;60.00
15879;DHT22;61999;51.514;14.614;2023-05-10T03:22:20;2.80;60.50
15879;DHT22;61999;51.514;14.614;2023-05-10T03:24:54;2.80;61.00
15879;DHT22;61999;51.514;14.614;2023-05-10T03:27:26;2.80;60.80
15879;DHT22;61999;51.514;14.614;2023-05-10T03:29:55;2.70;61.00
15879;DHT22;61999;51.514;14.614;2023-05-10T03:32:25;2.70;61.20
15879;DHT22;61999;51.514;14.614;2023-05-10T03:34:55;2.70;61.10
15879;DHT22;61999;51.514;14.614;2023-05-10T03:37:23;2.70;60.40
15879;DHT22;61999;51.514;14.614;2023-05-10T03:39:51;2.70;60.70
15879;DHT22;61999;51.514;14.614;2023-05-10T03:42:19;2.70;61.20
15879;DHT22;61999;51.514;14.614;2023-05-10T03:44:47;2.60;61.40
15879;DHT22;61999;51.514;14.614;2023-05-10T03:47:16;2.70;60.60
15879;DHT22;61999;51.514;14.614;2023-05-10T03:49:44;2.70;60.30
15879;DHT22;61999;51.514;14.614;2023-05-10T03:52:13;2.70;60.90
15879;DHT22;61999;51.514;14.614;2023-05-10T03:54:41;2.70;59.90
15879;DHT22;61999;51.514;14.614;2023-05-10T03:57:09;2.70;61.00
15879;DHT22;61999;51.514;14.614;2023-05-10T03:59:37;2.70;60.30
15879;DHT22;61999;51.514;14.614;2023-05-10T04:02:05;2.70;61.20
15879;DHT22;61999;51.514;14.614;2023-05-10T04:04:33;2.60;61.60
15879;DHT22;61999;51.514;14.614;2023-05-10T04:07:01;2.50;61.30
15879;DHT22;61999;51.514;14.614;2023-05-10T04:09:31;2.60;61.90
15879;DHT22;61999;51.514;14.614;2023-05-10T04:12:00;2.50;62.10
15879;DHT22;61999;51.514;14.614;2023-05-10T04:14:29;2.30;62.40
15879;DHT22;61999;51.514;14.614;2023-05-10T04:16:57;2.30;62.60
15879;DHT22;61999;51.514;14.614;2023-05-10T04:19:29;2.30;63.00
15879;DHT22;61999;51.514;14.614;2023-05-10T04:21:57;2.20;63.70
15879;DHT22;61999;51.514;14.614;2023-05-10T04:24:25;2.20;63.50
15879;DHT22;61999;51.514;14.614;2023-05-10T04:26:55;2.30;63.00
15879;DHT22;61999;51.514;14.614;2023-05-10T04:29:23;2.30;63.10
15879;DHT22;61999;51.514;14.614;2023-05-10T04:31:51;2.40;63.00
15879;DHT22;61999;51.514;14.614;2023-05-10T04:34:20;2.40;62.90
15879;DHT22;61999;51.514;14.614;2023-05-10T04:36:48;2.40;62.90
15879;DHT22;61999;51.514;14.614;2023-05-10T04:39:16;2.60;62.50
15879;DHT22;61999;51.514;14.614;2023-05-10T04:41:44;2.50;62.70
15879;DHT22;61999;51.514;14.614;2023-05-10T04:44:14;2.60;62.70
15879;DHT22;61999;51.514;14.614;2023-05-10T04:46:42;2.70;62.20
15879;DHT22;61999;51.514;14.614;2023-05-10T04:49:10;2.70;61.90
15879;DHT22;61999;51.514;14.614;2023-05-10T04:51:38;2.80;61.80
15879;DHT22;61999;51.514;14.614;2023-05-10T04:54:06;2.60;63.00
15879;DHT22;61999;51.514;14.614;2023-05-10T04:56:34;2.70;62.60
15879;DHT22;61999;51.514;14.614;2023-05-10T04:59:02;2.70;62.50
15879;DHT22;61999;51.514;14.614;2023-05-10T05:01:31;2.80;62.40
15879;DHT22;61999;51.514;14.614;2023-05-10T05:04:00;2.90;62.10
15879;DHT22;61999;51.514;14.614;2023-05-10T05:06:28;3.00;61.90
15879;DHT22;61999;51.514;14.614;2023-05-10T05:08:56;3.00;62.00
15879;DHT22;61999;51.514;14.614;2023-05-10T05:11:24;3.00;61.90
15879;DHT22;61999;51.514;14.614;2023-05-10T05:13:52;3.10;61.90
15879;DHT22;61999;51.514;14.614;2023-05-10T05:16:21;3.10;61.80
15879;DHT22;61999;51.514;14.614;2023-05-10T05:18:50;3.20;61.80
15879;DHT22;61999;51.514;14.614;2023-05-10T05:21:19;3.30;61.60
15879;DHT22;61999;51.514;14.614;2023-05-10T05:23:48;3.30;61.60
15879;DHT22;61999;51.514;14.614;2023-05-10T05:26:16;3.30;61.50
15879;DHT22;61999;51.514;14.614;2023-05-10T05:28:44;3.40;61.40
15879;DHT22;61999;51.514;14.614;2023-05-10T05:31:12;3.50;61.40
15879;DHT22;61999;51.514;14.614;2023-05-10T05:33:40;3.60;61.40
15879;DHT22;61999;51.514;14.614;2023-05-10T05:36:09;3.80;60.60
15879;DHT22;61999;51.514;14.614;2023-05-10T05:38:37;4.00;60.60
15879;DHT22;61999;51.514;14.614;2023-05-10T05:41:06;4.00;60.30
15879;DHT22;61999;51.514;14.614;2023-05-10T05:43:34;4.30;59.70
15879;DHT22;61999;51.514;14.614;2023-05-10T05:46:03;4.20;59.80
15879;DHT22;61999;51.514;14.614;2023-05-10T05:48:31;4.10;60.40
15879;DHT22;61999;51.514;14.614;2023-05-10T05:50:59;4.10;60.40
15879;DHT22;61999;51.514;14.614;2023-05-10T05:53:28;4.20;60.50
15879;DHT22;61999;51.514;14.614;2023-05-10T05:55:57;4.40;60.20
15879;DHT22;61999;51.514;14.614;2023-05-10T05:58:26;4.60;59.80
15879;DHT22;61999;51.514;14.614;2023-05-10T06:00:54;4.70;59.70
15879;DHT22;61999;51.514;14.614;2023-05-10T06:03:22;4.80;59.50
15879;DHT22;61999;51.514;14.614;2023-05-10T06:05:50;4.80;59.60
15879;DHT22;61999;51.514;14.614;2023-05-10T06:08:18;4.90;59.40
15879;DHT22;61999;51.514;14.614;2023-05-10T06:10:48;5.10;59.40
15879;DHT22;61999;51.514;14.614;2023-05-10T06:13:16;5.00;58.70
15879;DHT22;61999;51.514;14.614;2023-05-10T06:15:44;5.10;58.60
15879;DHT22;61999;51.514;14.614;2023-05-10T06:18:12;5.30;58.80
15879;DHT22;61999;51.514;14.614;2023-05-10T06:20:41;5.50;57.90
15879;DHT22;61999;51.514;14.614;2023-05-10T06:23:09;5.60;57.60
15879;DHT22;61999;51.514;14.614;2023-05-10T06:25:37;5.80;57.50
15879;DHT22;61999;51.514;14.614;2023-05-10T06:28:07;5.80;57.10
15879;DHT22;61999;51.514;14.614;2023-05-10T06:30:36;5.90;57.40
15879;DHT22;61999;51.514;14.614;2023-05-10T06:33:04;6.00;56.90
15879;DHT22;61999;51.514;14.614;2023-05-10T06:35:32;6.20;57.20
15879;DHT22;61999;51.514;14.614;2023-05-10T06:38:00;6.30;57.50
15879;DHT22;61999;51.514;14.614;2023-05-10T06:40:28;6.50;56.80
15879;DHT22;61999;51.514;14.614;2023-05-10T06:42:57;6.70;56.80
15879;DHT22;61999;51.514;14.614;2023-05-10T06:45:26;6.70;55.60
15879;DHT22;61999;51.514;14.614;2023-05-10T06:47:54;6.70;55.00
15879;DHT22;61999;51.514;14.614;2023-05-10T06:50:22;6.80;55.00
15879;DHT22;61999;51.514;14.614;2023-05-10T06:52:50;7.10;54.90
15879;DHT22;61999;51.514;14.614;2023-05-10T06:55:18;7.20;54.90
15879;DHT22;61999;51.514;14.614;2023-05-10T06:57:47;7.30;54.50
15879;DHT22;61999;51.514;14.614;2023-05-10T07:00:16;7.40;54.10
15879;DHT22;61999;51.514;14.614;2023-05-10T07:02:46;7.70;53.80
15879;DHT22;61999;51.514;14.614;2023-05-10T07:05:15;8.10;53.10
15879;DHT22;61999;51.514;14.614;2023-05-10T07:07:43;8.00;52.50
15879;DHT22;61999;51.514;14.614;2023-05-10T07:10:11;8.20;53.10
15879;DHT22;61999;51.514;14.614;2023-05-10T07:12:40;7.90;52.50
15879;DHT22;61999;51.514;14.614;2023-05-10T07:15:09;7.80;52.90
15879;DHT22;61999;51.514;14.614;2023-05-10T07:17:37;8.00;53.50
15879;DHT22;61999;51.514;14.614;2023-05-10T07:20:08;8.20;53.00
15879;DHT22;61999;51.514;14.614;2023-05-10T07:22:36;8.30;52.60
15879;DHT22;61999;51.514;14.614;2023-05-10T07:25:05;8.60;51.70
15879;DHT22;61999;51.514;14.614;2023-05-10T07:27:34;8.70;52.10
15879;DHT22;61999;51.514;14.614;2023-05-10T07:30:02;8.90;51.70
15879;DHT22;61999;51.514;14.614;2023-05-10T07:32:30;9.30;50.50
15879;DHT22;61999;51.514;14.614;2023-05-10T07:34:58;9.30;50.20
15879;DHT22;61999;51.514;14.614;2023-05-10T07:37:28;9.70;50.60
15879;DHT22;61999;51.514;14.614;2023-05-10T07:39:56;9.80;49.90
15879;DHT22;61999;51.514;14.614;2023-05-10T07:42:24;10.20;49.10
15879;DHT22;61999;51.514;14.614;2023-05-10T07:44:52;10.60;46.80
15879;DHT22;61999;51.514;14.614;2023-05-10T07:47:20;10.60;47.30
15879;DHT22;61999;51.514;14.614;2023-05-10T07:49:48;10.90;45.40
15879;DHT22;61999;51.514;14.614;2023-05-10T07:52:16;11.20;45.00
15879;DHT22;61999;51.514;14.614;2023-05-10T07:54:45;10.80;45.10
15879;DHT22;61999;51.514;14.614;2023-05-10T07:57:13;10.90;44.70
15879;DHT22;61999;51.514;14.614;2023-05-10T07:59:44;11.30;44.70
15879;DHT22;61999;51.514;14.614;2023-05-10T08:02:12;11.10;43.70
15879;DHT22;61999;51.514;14.614;2023-05-10T08:04:40;11.00;45.40
15879;DHT22;61999;51.514;14.614;2023-05-10T08:07:08;11.50;44.10
15879;DHT22;61999;51.514;14.614;2023-05-10T08:09:37;11.40;44.10
15879;DHT22;61999;51.514;14.614;2023-05-10T08:12:06;11.50;43.50
15879;DHT22;61999;51.514;14.614;2023-05-10T08:14:35;11.70;42.80
15879;DHT22;61999;51.514;14.614;2023-05-10T08:17:03;11.70;42.30
15879;DHT22;61999;51.514;14.614;2023-05-10T08:19:31;11.70;41.60
15879;DHT22;61999;51.514;14.614;2023-05-10T08:21:59;12.00;42.20
15879;DHT22;61999;51.514;14.614;2023-05-10T08:24:27;12.30;41.90
15879;DHT22;61999;51.514;14.614;2023-05-10T08:26:55;12.40;42.90
15879;DHT22;61999;51.514;14.614;2023-05-10T08:29:25;12.80;41.10
15879;DHT22;61999;51.514;14.614;2023-05-10T08:31:54;13.10;40.00
15879;DHT22;61999;51.514;14.614;2023-05-10T08:34:22;13.30;40.10
15879;DHT22;61999;51.514;14.614;2023-05-10T08:36:50;13.30;39.50
15879;DHT22;61999;51.514;14.614;2023-05-10T08:39:18;13.50;39.60
15879;DHT22;61999;51.514;14.614;2023-05-10T08:41:54;13.50;39.90
15879;DHT22;61999;51.514;14.614;2023-05-10T08:44:31;13.20;38.80
15879;DHT22;61999;51.514;14.614;2023-05-10T08:47:04;13.50;40.00
15879;DHT22;61999;51.514;14.614;2023-05-10T08:49:34;13.90;39.40
15879;DHT22;61999;51.514;14.614;2023-05-10T08:52:03;13.90;38.80
15879;DHT22;61999;51.514;14.614;2023-05-10T08:54:34;14.30;38.50
15879;DHT22;61999;51.514;14.614;2023-05-10T08:57:02;14.70;37.70
15879;DHT22;61999;51.514;14.614;2023-05-10T08:59:32;14.90;38.20
15879;DHT22;61999;51.514;14.614;2023-05-10T09:02:00;15.30;36.40
15879;DHT22;61999;51.514;14.614;2023-05-10T09:04:29;15.50;36.00
15879;DHT22;61999;51.514;14.614;2023-05-10T09:06:58;15.60;35.80
15879;DHT22;61999;51.514;14.614;2023-05-10T09:09:27;15.60;35.80
15879;DHT22;61999;51.514;14.614;2023-05-10T09:11:55;15.50;35.70
15879;DHT22;61999;51.514;14.614;2023-05-10T09:14:24;15.50;35.50
15879;DHT22;61999;51.514;14.614;2023-05-10T09:16:56;15.60;35.60
15879;DHT22;61999;51.514;14.614;2023-05-10T09:19:24;15.70;35.00
15879;DHT22;61999;51.514;14.614;2023-05-10T09:21:52;15.90;35.00
15879;DHT22;61999;51.514;14.614;2023-05-10T09:24:25;15.90;36.20
15879;DHT22;61999;51.514;14.614;2023-05-10T09:26:53;15.80;34.20
15879;DHT22;61999;51.514;14.614;2023-05-10T09:29:21;16.10;34.70
15879;DHT22;61999;51.514;14.614;2023-05-10T09:31:51;16.60;34.10
15879;DHT22;61999;51.514;14.614;2023-05-10T09:34:29;16.80;34.40
15879;DHT22;61999;51.514;14.614;2023-05-10T09:37:02;16.60;33.70
15879;DHT22;61999;51.514;14.614;2023-05-10T09:39:31;16.60;33.00
15879;DHT22;61999;51.514;14.614;2023-05-10T09:42:01;16.30;33.80
15879;DHT22;61999;51.514;14.614;2023-05-10T09:44:31;17.00;35.40
15879;DHT22;61999;51.514;14.614;2023-05-10T09:47:01;17.50;32.30
15879;DHT22;61999;51.514;14.614;2023-05-10T09:49:31;17.70;32.20
15879;DHT22;61999;51.514;14.614;2023-05-10T09:52:01;17.70;31.30
15879;DHT22;61999;51.514;14.614;2023-05-10T09:54:30;18.00;32.50
15879;DHT22;61999;51.514;14.614;2023-05-10T09:56:59;18.40;33.10
15879;DHT22;61999;51.514;14.614;2023-05-10T09:59:28;18.70;32.00
15879;DHT22;61999;51.514;14.614;2023-05-10T10:01:57;18.70;31.40
15879;DHT22;61999;51.514;14.614;2023-05-10T10:04:27;18.90;30.00
15879;DHT22;61999;51.514;14.614;2023-05-10T10:07:02;18.50;30.60
15879;DHT22;61999;51.514;14.614;2023-05-10T10:09:32;18.90;30.10
15879;DHT22;61999;51.514;14.614;2023-05-10T10:12:02;18.90;29.60
15879;DHT22;61999;51.514;14.614;2023-05-10T10:14:31;18.50;30.00
15879;DHT22;61999;51.514;14.614;2023-05-10T10:17:00;18.30;30.60
15879;DHT22;61999;51.514;14.614;2023-05-10T10:19:33;18.70;30.50
15879;DHT22;61999;51.514;14.614;2023-05-10T10:22:03;18.60;30.10
15879;DHT22;61999;51.514;14.614;2023-05-10T10:24:31;19.00;28.90
15879;DHT22;61999;51.514;14.614;2023-05-10T10:27:09;18.90;29.00
15879;DHT22;61999;51.514;14.614;2023-05-10T10:29:57;19.80;29.40
15879;DHT22;61999;51.514;14.614;2023-05-10T10:32:49;19.90;27.70
15879;DHT22;61999;51.514;14.614;2023-05-10T10:35:31;19.30;27.70
15879;DHT22;61999;51.514;14.614;2023-05-10T10:38:02;19.70;29.50
15879;DHT22;61999;51.514;14.614;2023-05-10T10:40:31;20.40;28.60
15879;DHT22;61999;51.514;14.614;2023-05-10T10:43:20;20.90;28.60
15879;DHT22;61999;51.514;14.614;2023-05-10T10:46:11;21.20;27.00
15879;DHT22;61999;51.514;14.614;2023-05-10T10:48:41;21.20;27.80
15879;DHT22;61999;51.514;14.614;2023-05-10T10:51:15;21.60;28.60
15879;DHT22;61999;51.514;14.614;2023-05-10T10:53:44;22.20;27.60
15879;DHT22;61999;51.514;14.614;2023-05-10T10:56:15;22.70;27.20
15879;DHT22;61999;51.514;14.614;2023-05-10T10:58:51;22.80;26.30
15879;DHT22;61999;51.514;14.614;2023-05-10T11:01:20;23.10;26.00
15879;DHT22;61999;51.514;14.614;2023-05-10T11:04:16;22.20;26.40
15879;DHT22;61999;51.514;14.614;2023-05-10T11:06:45;21.70;26.80
15879;DHT22;61999;51.514;14.614;2023-05-10T11:09:14;22.40;26.70
15879;DHT22;61999;51.514;14.614;2023-05-10T11:11:50;23.10;27.00
15879;DHT22;61999;51.514;14.614;2023-05-10T11:14:22;23.40;26.30
15879;DHT22;61999;51.514;14.614;2023-05-10T11:16:51;23.10;25.60
15879;DHT22;61999;51.514;14.614;2023-05-10T11:19:19;22.70;25.70
15879;DHT22;61999;51.514;14.614;2023-05-10T11:21:49;22.60;26.00
15879;DHT22;61999;51.514;14.614;2023-05-10T11:24:23;23.20;25.50
15879;DHT22;61999;51.514;14.614;2023-05-10T11:26:56;24.20;26.20
15879;DHT22;61999;51.514;14.614;2023-05-10T11:29:24;24.40;24.80
15879;DHT22;61999;51.514;14.614;2023-05-10T11:31:58;24.60;25.10
15879;DHT22;61999;51.514;14.614;2023-05-10T11:34:28;25.10;25.50
15879;DHT22;61999;51.514;14.614;2023-05-10T11:36:57;24.90;24.00
15879;DHT22;61999;51.514;14.614;2023-05-10T11:39:29;23.80;24.60
15879;DHT22;61999;51.514;14.614;2023-05-10T11:41:59;24.60;24.20
15879;DHT22;61999;51.514;14.614;2023-05-10T11:44:29;25.20;24.60
15879;DHT22;61999;51.514;14.614;2023-05-10T11:46:58;25.30;24.50
15879;DHT22;61999;51.514;14.614;2023-05-10T11:49:27;24.40;24.10
15879;DHT22;61999;51.514;14.614;2023-05-10T11:52:03;24.30;25.00
15879;DHT22;61999;51.514;14.614;2023-05-10T11:54:34;25.10;25.00
15879;DHT22;61999;51.514;14.614;2023-05-10T11:57:03;24.90;23.60
15879;DHT22;61999;51.514;14.614;2023-05-10T11:59:31;25.10;24.40
15879;DHT22;61999;51.514;14.614;2023-05-10T12:01:59;25.00;24.50
15879;DHT22;61999;51.514;14.614;2023-05-10T12:04:28;25.20;23.70
15879;DHT22;61999;51.514;14.614;2023-05-10T12:06:57;24.90;24.30
15879;DHT22;61999;51.514;14.614;2023-05-10T12:09:26;25.30;24.00
15879;DHT22;61999;51.514;14.614;2023-05-10T12:12:02;25.40;23.80
15879;DHT22;61999;51.514;14.614;2023-05-10T12:14:34;26.30;24.10
15879;DHT22;61999;51.514;14.614;2023-05-10T12:17:03;26.60;23.80
15879;DHT22;61999;51.514;14.614;2023-05-10T12:19:37;27.00;23.60
15879;DHT22;61999;51.514;14.614;2023-05-10T12:22:06;25.90;23.00
15879;DHT22;61999;51.514;14.614;2023-05-10T12:24:34;25.10;23.80
15879;DHT22;61999;51.514;14.614;2023-05-10T12:27:08;24.90;23.70
15879;DHT22;61999;51.514;14.614;2023-05-10T12:29:41;24.50;23.40
15879;DHT22;61999;51.514;14.614;2023-05-10T12:32:11;24.30;23.80
15879;DHT22;61999;51.514;14.614;2023-05-10T12:34:39;24.60;24.90
15879;DHT22;61999;51.514;14.614;2023-05-10T12:37:07;24.60;24.40
15879;DHT22;61999;51.514;14.614;2023-05-10T12:39:39;24.20;24.10
15879;DHT22;61999;51.514;14.614;2023-05-10T12:42:09;25.00;24.80
15879;DHT22;61999;51.514;14.614;2023-05-10T12:44:38;25.60;24.40
15879;DHT22;61999;51.514;14.614;2023-05-10T12:47:07;26.40;23.80
15879;DHT22;61999;51.514;14.614;2023-05-10T12:49:35;25.90;23.30
15879;DHT22;61999;51.514;14.614;2023-05-10T12:52:03;26.20;23.00
15879;DHT22;61999;51.514;14.614;2023-05-10T12:54:31;26.30;23.30
15879;DHT22;61999;51.514;14.614;2023-05-10T12:56:59;25.60;23.30
15879;DHT22;61999;51.514;14.614;2023-05-10T12:59:29;25.30;23.30
15879;DHT22;61999;51.514;14.614;2023-05-10T13:01:57;25.00;23.80
15879;DHT22;61999;51.514;14.614;2023-05-10T13:04:25;24.90;23.50
15879;DHT22;61999;51.514;14.614;2023-05-10T13:06:53;25.20;24.20
15879;DHT22;61999;51.514;14.614;2023-05-10T13:09:25;24.90;23.70
15879;DHT22;61999;51.514;14.614;2023-05-10T13:11:53;24.50;24.60
15879;DHT22;61999;51.514;14.614;2023-05-10T13:14:21;26.00;23.30
15879;DHT22;61999;51.514;14.614;2023-05-10T13:16:51;26.60;23.00
15879;DHT22;61999;51.514;14.614;2023-05-10T13:19:19;27.40;22.90
15879;DHT22;61999;51.514;14.614;2023-05-10T13:21:47;26.70;23.30
15879;DHT22;61999;51.514;14.614;2023-05-10T13:24:15;27.20;23.50
15879;DHT22;61999;51.514;14.614;2023-05-10T13:26:44;26.90;22.20
15879;DHT22;61999;51.514;14.614;2023-05-10T13:29:12;26.30;22.30
15879;DHT22;61999;51.514;14.614;2023-05-10T13:31:40;25.80;22.50
15879;DHT22;61999;51.514;14.614;2023-05-10T13:34:09;26.20;22.50
15879;DHT22;61999;51.514;14.614;2023-05-10T13:36:37;25.90;23.30
15879;DHT22;61999;51.514;14.614;2023-05-10T13:39:06;26.80;23.30
15879;DHT22;61999;51.514;14.614;2023-05-10T13:41:35;27.50;22.20
15879;DHT22;61999;51.514;14.614;2023-05-10T13:44:03;27.50;21.70
15879;DHT22;61999;51.514;14.614;2023-05-10T13:46:31;27.70;22.70
15879;DHT22;61999;51.514;14.614;2023-05-10T13:48:59;27.80;22.30
15879;DHT22;61999;51.514;14.614;2023-05-10T13:51:28;29.00;21.30
15879;DHT22;61999;51.514;14.614;2023-05-10T13:53:58;28.90;21.90
15879;DHT22;61999;51.514;14.614;2023-05-10T13:56:26;29.60;21.50
15879;DHT22;61999;51.514;14.614;2023-05-10T13:58:54;30.20;20.60
15879;DHT22;61999;51.514;14.614;2023-05-10T14:01:23;30.40;21.40
15879;DHT22;61999;51.514;14.614;2023-05-10T14:03:51;30.50;20.40
15879;DHT22;61999;51.514;14.614;2023-05-10T14:06:20;30.80;20.00
15879;DHT22;61999;51.514;14.614;2023-05-10T14:08:49;31.00;20.20
15879;DHT22;61999;51.514;14.614;2023-05-10T14:11:17;30.60;20.10
15879;DHT22;61999;51.514;14.614;2023-05-10T14:13:45;29.90;20.40
15879;DHT22;61999;51.514;14.614;2023-05-10T14:16:13;28.30;20.90
15879;DHT22;61999;51.514;14.614;2023-05-10T14:18:42;27.80;21.20
15879;DHT22;61999;51.514;14.614;2023-05-10T14:21:10;27.10;21.80
15879;DHT22;61999;51.514;14.614;2023-05-10T14:23:38;25.80;22.20
15879;DHT22;61999;51.514;14.614;2023-05-10T14:26:08;24.90;23.00
15879;DHT22;61999;51.514;14.614;2023-05-10T14:28:36;25.30;23.20
15879;DHT22;61999;51.514;14.614;2023-05-10T14:31:04;25.70;23.10
15879;DHT22;61999;51.514;14.614;2023-05-10T14:33:32;26.20;23.00
15879;DHT22;61999;51.514;14.614;2023-05-10T14:36:00;26.40;22.60
15879;DHT22;61999;51.514;14.614;2023-05-10T14:38:30;26.70;22.50
15879;DHT22;61999;51.514;14.614;2023-05-10T14:40:58;26.80;22.20
15879;DHT22;61999;51.514;14.614;2023-05-10T14:43:27;26.20;22.60
15879;DHT22;61999;51.514;14.614;2023-05-10T14:45:55;26.20;23.00
15879;DHT22;61999;51.514;14.614;2023-05-10T14:48:23;26.20;23.40
15879;DHT22;61999;51.514;14.614;2023-05-10T14:50:51;26.70;23.00
15879;DHT22;61999;51.514;14.614;2023-05-10T14:53:20;26.90;22.50
15879;DHT22;61999;51.514;14.614;2023-05-10T14:55:48;27.10;22.10
15879;DHT22;61999;51.514;14.614;2023-05-10T14:58:16;27.10;22.10
15879;DHT22;61999;51.514;14.614;2023-05-10T15:00:45;27.10;21.90
15879;DHT22;61999;51.514;14.614;2023-05-10T15:03:13;27.10;21.70
15879;DHT22;61999;51.514;14.614;2023-05-10T15:05:41;27.10;21.90
15879;DHT22;61999;51.514;14.614;2023-05-10T15:08:10;26.70;21.80
15879;DHT22;61999;51.514;14.614;2023-05-10T15:10:39;25.90;22.10
15879;DHT22;61999;51.514;14.614;2023-05-10T15:13:07;25.40;22.70
15879;DHT22;61999;51.514;14.614;2023-05-10T15:15:35;25.10;22.90
15879;DHT22;61999;51.514;14.614;2023-05-10T15:18:05;24.80;23.30
15879;DHT22;61999;51.514;14.614;2023-05-10T15:20:33;24.50;23.30
15879;DHT22;61999;51.514;14.614;2023-05-10T15:23:01;24.50;23.60
15879;DHT22;61999;51.514;14.614;2023-05-10T15:25:29;24.10;24.00
15879;DHT22;61999;51.514;14.614;2023-05-10T15:27:57;23.80;23.90
15879;DHT22;61999;51.514;14.614;2023-05-10T15:30:25;23.60;24.60
15879;DHT22;61999;51.514;14.614;2023-05-10T15:32:53;23.40;24.40
15879;DHT22;61999;51.514;14.614;2023-05-10T15:35:23;23.30;24.50
15879;DHT22;61999;51.514;14.614;2023-05-10T15:37:51;23.10;24.60
15879;DHT22;61999;51.514;14.614;2023-05-10T15:40:19;23.00;24.90
15879;DHT22;61999;51.514;14.614;2023-05-10T15:42:47;22.80;25.10
15879;DHT22;61999;51.514;14.614;2023-05-10T15:45:15;22.70;25.40